createdAt,value
2023-04-23T00:02:22.913Z,7.44
2023-04-23T00:05:08.890Z,6.52
2023-04-23T00:07:54.499Z,6.80
2023-04-23T00:10:40.876Z,7.31
2023-04-23T00:13:26.829Z,7.43
2023-04-23T00:16:13.691Z,6.34
2023-04-23T00:18:59.111Z,7.34
2023-04-23T00:21:45.357Z,7.21
2023-04-23T00:24:31.991Z,6.18
2023-04-23T00:27:18.296Z,7.23
2023-04-23T00:30:04.661Z,7.59
2023-04-23T00:32:50.137Z,7.55
2023-04-23T00:35:35.313Z,6.37
2023-04-23T00:38:21.389Z,7.69
2023-04-23T00:41:07.329Z,7.46
2023-04-23T00:43:57.310Z,6.34
2023-04-23T00:46:43.581Z,6.91
2023-04-23T00:49:29.883Z,6.80
2023-04-23T00:52:15.109Z,7.73
2023-04-23T00:55:00.743Z,6.09
2023-04-23T00:57:46.387Z,7.68
2023-04-23T01:00:33.438Z,7.69
2023-04-23T01:03:22.079Z,7.66
2023-04-23T01:06:07.843Z,7.73
2023-04-23T01:08:53.863Z,6.93
2023-04-23T01:11:42.513Z,7.19
2023-04-23T01:14:28.427Z,6.24
2023-04-23T01:17:14.473Z,7.51
2023-04-23T01:20:00.153Z,7.46
2023-04-23T01:22:46.086Z,7.47
2023-04-23T01:25:31.870Z,6.24
2023-04-23T01:28:17.738Z,6.86
2023-04-23T01:31:04.140Z,6.43
2023-04-23T01:33:51.995Z,6.21
2023-04-23T01:36:38.095Z,7.01
2023-04-23T01:39:23.384Z,7.11
2023-04-23T01:42:08.900Z,7.10
2023-04-23T01:44:54.477Z,7.06
2023-04-23T01:47:42.052Z,7.08
2023-04-23T01:50:29.894Z,6.49
2023-04-23T01:53:15.582Z,6.95
2023-04-23T01:56:02.332Z,6.63
2023-04-23T01:58:47.841Z,7.03
2023-04-23T02:01:45.459Z,7.01
2023-04-23T02:04:31.646Z,7.05
2023-04-23T02:07:17.278Z,6.99
2023-04-23T02:10:03.137Z,5.73
2023-04-23T02:12:48.971Z,5.65
2023-04-23T02:15:34.485Z,5.74
2023-04-23T02:18:19.929Z,7.05
2023-04-23T02:21:06.506Z,6.04
2023-04-23T02:23:51.877Z,6.44
2023-04-23T02:26:37.359Z,6.98
2023-04-23T02:29:22.670Z,5.83
2023-04-23T02:32:08.008Z,6.75
2023-04-23T02:34:53.615Z,5.81
2023-04-23T02:37:40.036Z,5.97
2023-04-23T02:40:25.768Z,6.14
2023-04-23T02:43:11.298Z,6.62
2023-04-23T02:45:56.869Z,6.56
2023-04-23T02:48:42.217Z,5.65
2023-04-23T02:51:27.704Z,6.69
2023-04-23T02:54:13.672Z,6.15
2023-04-23T02:56:59.072Z,6.43
2023-04-23T02:59:44.565Z,6.75
2023-04-23T03:02:29.923Z,5.57
2023-04-23T03:05:15.394Z,5.50
2023-04-23T03:08:01.017Z,6.08
2023-04-23T03:10:46.565Z,6.67
2023-04-23T03:13:32.400Z,5.84
2023-04-23T03:16:17.968Z,6.59
2023-04-23T03:19:05.011Z,5.29
2023-04-23T03:21:50.399Z,6.64
2023-04-23T03:24:35.559Z,6.69
2023-04-23T03:27:21.069Z,5.26
2023-04-23T03:30:08.898Z,5.27
2023-04-23T03:32:56.934Z,5.16
2023-04-23T03:35:42.858Z,5.36
2023-04-23T03:38:33.808Z,5.18
2023-04-23T03:41:21.383Z,6.04
2023-04-23T03:44:09.327Z,4.80
2023-04-23T03:47:03.792Z,5.97
2023-04-23T03:49:50.996Z,5.70
2023-04-23T03:52:36.948Z,5.98
2023-04-23T03:55:22.904Z,5.90
2023-04-23T03:58:09.277Z,5.07
2023-04-23T04:01:03.880Z,4.57
2023-04-23T04:03:49.757Z,5.29
2023-04-23T04:06:36.100Z,4.68
2023-04-23T04:09:22.167Z,4.59
2023-04-23T04:12:08.966Z,5.97
2023-04-23T04:14:55.466Z,6.12
2023-04-23T04:17:41.519Z,6.34
2023-04-23T04:20:29.307Z,6.51
2023-04-23T04:23:15.637Z,5.86
2023-04-23T04:26:02.014Z,6.63
2023-04-23T04:28:48.011Z,6.69
2023-04-23T04:31:33.890Z,6.69
2023-04-23T04:34:20.566Z,6.76
2023-04-23T04:37:07.890Z,7.02
2023-04-23T04:39:54.606Z,7.19
2023-04-23T04:42:41.341Z,7.40
2023-04-23T04:45:27.879Z,6.38
2023-04-23T04:48:13.211Z,6.42
2023-04-23T04:50:58.997Z,7.26
2023-04-23T04:53:44.616Z,8.01
2023-04-23T04:56:29.940Z,7.97
2023-04-23T04:59:15.424Z,7.85
2023-04-23T05:02:01.128Z,8.43
2023-04-23T05:04:46.889Z,7.33
2023-04-23T05:07:32.238Z,8.74
2023-04-23T05:10:17.524Z,8.67
2023-04-23T05:13:02.967Z,8.75
2023-04-23T05:15:48.333Z,9.25
2023-04-23T05:18:33.792Z,8.99
2023-04-23T05:21:19.702Z,9.62
2023-04-23T05:24:05.116Z,8.78
2023-04-23T05:26:50.589Z,10.09
2023-04-23T05:29:35.896Z,9.37
2023-04-23T05:32:21.501Z,9.73
2023-04-23T05:35:07.264Z,11.22
2023-04-23T05:37:52.968Z,11.58
2023-04-23T05:40:38.972Z,11.91
2023-04-23T05:43:24.493Z,12.38
2023-04-23T05:46:09.794Z,11.61
2023-04-23T05:48:55.290Z,12.58
2023-04-23T05:51:40.818Z,13.03
2023-04-23T05:54:26.466Z,12.53
2023-04-23T05:57:12.705Z,13.71
2023-04-23T05:59:59.082Z,14.16
2023-04-23T06:02:45.094Z,13.91
2023-04-23T06:05:31.081Z,14.67
2023-04-23T06:08:16.358Z,14.61
2023-04-23T06:11:02.675Z,14.93
2023-04-23T06:13:48.432Z,14.40
2023-04-23T06:16:34.074Z,14.42
2023-04-23T06:19:19.986Z,14.55
2023-04-23T06:22:05.803Z,15.39
2023-04-23T06:24:51.640Z,15.48
2023-04-23T06:27:37.384Z,15.59
2023-04-23T06:30:29.892Z,15.72
2023-04-23T06:33:15.609Z,15.75
2023-04-23T06:36:01.040Z,15.99
2023-04-23T06:38:46.577Z,16.08
2023-04-23T06:41:31.953Z,16.20
2023-04-23T06:44:48.430Z,16.17
2023-04-23T06:47:34.589Z,16.26
2023-04-23T06:50:20.489Z,16.48
2023-04-23T06:53:06.093Z,16.61
2023-04-23T06:55:51.513Z,16.68
2023-04-23T06:58:37.575Z,16.74
2023-04-23T07:01:31.420Z,15.91
2023-04-23T07:04:16.957Z,16.59
2023-04-23T07:07:03.160Z,17.07
2023-04-23T07:09:48.826Z,17.14
2023-04-23T07:12:34.917Z,16.89
2023-04-23T07:15:20.278Z,16.95
2023-04-23T07:18:06.861Z,17.19
2023-04-23T07:20:52.618Z,16.93
2023-04-23T07:23:37.943Z,17.00
2023-04-23T07:26:24.497Z,17.39
2023-04-23T07:29:14.187Z,16.79
2023-04-23T07:31:59.629Z,17.66
2023-04-23T07:34:45.097Z,17.66
2023-04-23T07:37:30.959Z,17.63
2023-04-23T07:40:16.778Z,17.15
2023-04-23T07:43:02.534Z,17.06
2023-04-23T07:45:47.836Z,17.60
2023-04-23T07:48:34.838Z,17.17
2023-04-23T07:51:22.468Z,17.81
2023-04-23T07:54:09.569Z,18.18
2023-04-23T07:56:57.643Z,18.31
2023-04-23T07:59:46.053Z,17.43
2023-04-23T08:02:33.860Z,18.20
2023-04-23T08:05:19.355Z,18.32
2023-04-23T08:08:04.806Z,18.31
2023-04-23T08:10:51.936Z,18.44
2023-04-23T08:13:38.030Z,18.32
2023-04-23T08:16:23.631Z,18.30
2023-04-23T08:19:09.405Z,18.46
2023-04-23T08:21:54.877Z,17.69
2023-04-23T08:24:41.211Z,18.50
2023-04-23T08:27:26.801Z,18.47
2023-04-23T08:30:12.937Z,18.25
2023-04-23T08:32:58.426Z,17.64
2023-04-23T08:35:43.770Z,18.55
2023-04-23T08:38:29.278Z,18.49
2023-04-23T08:41:18.115Z,18.62
2023-04-23T08:44:19.171Z,18.71
2023-04-23T08:47:08.447Z,18.73
2023-04-23T08:49:55.994Z,18.77
2023-04-23T08:52:46.269Z,18.15
2023-04-23T08:55:33.861Z,17.77
2023-04-23T08:58:20.190Z,18.79
2023-04-23T09:01:07.171Z,18.72
2023-04-23T09:03:54.008Z,17.79
2023-04-23T09:06:40.215Z,18.81
2023-04-23T09:09:29.212Z,18.80
2023-04-23T09:12:15.564Z,18.48
2023-04-23T09:15:02.062Z,18.78
2023-04-23T09:17:47.957Z,18.88
2023-04-23T09:20:33.464Z,18.91
2023-04-23T09:23:21.931Z,18.79
2023-04-23T09:26:08.100Z,19.02
2023-04-23T09:28:53.875Z,18.39
2023-04-23T09:31:39.846Z,18.59
2023-04-23T09:34:25.791Z,19.23
2023-04-23T09:37:11.887Z,19.39
2023-04-23T09:39:59.463Z,18.42
2023-04-23T09:42:55.997Z,19.24
2023-04-23T09:45:51.101Z,19.42
2023-04-23T09:48:41.997Z,19.24
2023-04-23T09:51:28.316Z,19.45
2023-04-23T09:54:16.692Z,19.45
2023-04-23T09:57:03.103Z,19.50
2023-04-23T09:59:53.048Z,19.61
2023-04-23T10:02:50.088Z,19.41
2023-04-23T10:08:32.704Z,18.70
2023-04-23T10:11:20.878Z,19.75
2023-04-23T10:14:09.094Z,18.78
2023-04-23T10:17:03.705Z,19.22
2023-04-23T10:19:50.579Z,19.77
2023-04-23T10:22:38.334Z,19.82
2023-04-23T10:25:24.619Z,19.84
2023-04-23T10:28:12.935Z,19.24
2023-04-23T10:30:58.477Z,19.06
2023-04-23T10:33:56.119Z,19.87
2023-04-23T10:36:45.069Z,19.64
2023-04-23T10:39:33.929Z,19.42
2023-04-23T10:42:19.996Z,19.85
2023-04-23T10:45:22.520Z,19.68
2023-04-23T10:48:09.753Z,19.57
2023-04-23T10:51:28.418Z,19.23
2023-04-23T10:54:08.285Z,18.93
2023-04-23T10:56:59.498Z,19.76
2023-04-23T10:59:53.597Z,20.07
2023-04-23T11:02:44.135Z,20.06
2023-04-23T11:05:30.936Z,20.03
2023-04-23T11:08:19.921Z,19.79
2023-04-23T11:11:09.724Z,19.06
2023-04-23T11:13:55.606Z,20.02
2023-04-23T11:16:44.592Z,19.79
2023-04-23T11:19:31.858Z,20.08
2023-04-23T11:22:19.770Z,20.08
2023-04-23T11:25:10.139Z,19.90
2023-04-23T11:28:00.853Z,20.23
2023-04-23T11:30:50.710Z,19.97
2023-04-23T11:33:40.174Z,20.09
2023-04-23T11:36:27.801Z,20.05
2023-04-23T11:39:13.825Z,20.17
2023-04-23T11:42:03.418Z,19.44
2023-04-23T11:44:49.205Z,18.76
2023-04-23T11:47:34.870Z,19.67
2023-04-23T11:50:21.775Z,20.15
2023-04-23T11:53:10.737Z,20.00
2023-04-23T11:55:57.086Z,19.33
2023-04-23T11:58:43.324Z,19.72
2023-04-23T12:01:40.482Z,20.20
2023-04-23T12:04:30.926Z,20.14
2023-04-23T12:07:25.890Z,20.15
2023-04-23T12:10:18.139Z,20.15
2023-04-23T12:13:03.751Z,20.14
2023-04-23T12:15:56.575Z,19.02
2023-04-23T12:18:44.350Z,20.24
2023-04-23T12:21:30.491Z,20.21
2023-04-23T12:24:16.653Z,19.97
2023-04-23T12:27:02.972Z,19.74
2023-04-23T12:29:51.202Z,20.22
2023-04-23T12:32:38.744Z,20.18
2023-04-23T12:35:50.652Z,20.18
2023-04-23T12:38:36.344Z,20.16
2023-04-23T12:41:23.316Z,19.25
2023-04-23T12:44:09.020Z,19.89
2023-04-23T12:46:57.679Z,20.15
2023-04-23T12:49:44.199Z,20.23
2023-04-23T12:52:30.101Z,19.16
2023-04-23T12:55:16.221Z,20.23
2023-04-23T12:58:01.804Z,20.32
2023-04-23T13:00:47.162Z,19.31
2023-04-23T13:03:32.640Z,20.04
2023-04-23T13:06:18.221Z,20.32
2023-04-23T13:09:05.360Z,19.13
2023-04-23T13:11:52.866Z,20.35
2023-04-23T13:14:40.233Z,19.62
2023-04-23T13:17:26.547Z,19.63
2023-04-23T13:20:12.208Z,19.52
2023-04-23T13:22:57.622Z,19.46
2023-04-23T13:25:43.208Z,19.46
2023-04-23T13:28:29.045Z,20.24
2023-04-23T13:31:14.432Z,20.19
2023-04-23T13:34:02.843Z,19.21
2023-04-23T13:36:48.917Z,19.48
2023-04-23T13:39:34.311Z,20.03
2023-04-23T13:42:19.568Z,20.11
2023-04-23T13:45:06.376Z,19.86
2023-04-23T13:47:52.466Z,19.73
2023-04-23T13:50:38.086Z,19.96
2023-04-23T13:53:23.355Z,19.82
2023-04-23T13:56:08.928Z,19.93
2023-04-23T13:59:02.184Z,19.82
2023-04-23T14:01:53.845Z,19.33
2023-04-23T14:04:40.320Z,19.70
2023-04-23T14:07:25.837Z,19.56
2023-04-23T14:10:11.519Z,20.03
2023-04-23T14:12:57.201Z,19.30
2023-04-23T14:15:42.877Z,19.52
2023-04-23T14:18:28.847Z,20.29
2023-04-23T14:21:16.274Z,19.39
2023-04-23T14:24:09.853Z,20.15
2023-04-23T14:26:55.607Z,19.93
2023-04-23T14:29:46.425Z,20.31
2023-04-23T14:32:32.127Z,19.28
2023-04-23T14:35:24.533Z,20.27
2023-04-23T14:38:14.958Z,20.17
2023-04-23T14:41:00.718Z,20.01
2023-04-23T14:43:46.092Z,19.98
2023-04-23T14:46:31.608Z,19.61
2023-04-23T14:49:18.143Z,19.64
2023-04-23T14:52:04.468Z,19.85
2023-04-23T14:54:50.111Z,18.87
2023-04-23T14:57:36.046Z,19.84
2023-04-23T15:00:22.340Z,19.49
2023-04-23T15:03:11.104Z,19.70
2023-04-23T15:05:57.199Z,19.86
2023-04-23T15:08:42.569Z,19.89
2023-04-23T15:11:28.380Z,19.88
2023-04-23T15:14:24.636Z,19.91
2023-04-23T15:17:10.339Z,19.65
2023-04-23T15:19:56.818Z,18.85
2023-04-23T15:22:43.258Z,18.78
2023-04-23T15:25:30.036Z,19.75
2023-04-23T15:28:15.842Z,19.46
2023-04-23T15:31:01.317Z,19.51
2023-04-23T15:33:47.870Z,19.46
2023-04-23T15:36:34.796Z,19.43
2023-04-23T15:39:20.557Z,19.22
2023-04-23T15:42:07.338Z,19.64
2023-04-23T15:44:56.040Z,19.61
2023-04-23T15:47:42.249Z,18.63
2023-04-23T15:50:27.969Z,19.47
2023-04-23T15:53:13.749Z,19.57
2023-04-23T15:55:59.552Z,19.33
2023-04-23T15:58:45.072Z,18.60
2023-04-23T16:01:30.564Z,18.44
2023-04-23T16:04:16.445Z,19.23
2023-04-23T16:07:01.777Z,18.44
2023-04-23T16:09:47.662Z,19.32
2023-04-23T16:12:33.636Z,19.38
2023-04-23T16:15:19.422Z,19.29
2023-04-23T16:18:06.178Z,19.20
2023-04-23T16:20:52.159Z,19.27
2023-04-23T16:23:37.743Z,19.01
2023-04-23T16:26:23.270Z,19.10
2023-04-23T16:29:21.474Z,18.45
2023-04-23T16:32:08.369Z,18.98
2023-04-23T16:34:53.980Z,18.00
2023-04-23T16:37:39.661Z,18.99
2023-04-23T16:40:25.377Z,18.79
2023-04-23T16:43:11.517Z,18.48
2023-04-23T16:45:57.891Z,18.60
2023-04-23T16:48:45.155Z,17.76
2023-04-23T16:51:30.815Z,17.77
2023-04-23T16:54:16.159Z,18.60
2023-04-23T16:57:02.094Z,18.07
2023-04-23T16:59:47.665Z,18.58
2023-04-23T17:02:34.516Z,17.88
2023-04-23T17:05:24.130Z,17.40
2023-04-23T17:08:10.469Z,18.11
2023-04-23T17:10:56.449Z,18.31
2023-04-23T17:13:43.668Z,18.25
2023-04-23T17:16:30.512Z,18.16
2023-04-23T17:19:16.137Z,17.91
2023-04-23T17:22:02.077Z,16.87
2023-04-23T17:24:47.529Z,17.35
2023-04-23T17:27:32.990Z,17.62
2023-04-23T17:30:19.123Z,17.81
2023-04-23T17:33:05.225Z,17.52
2023-04-23T17:35:52.170Z,16.58
2023-04-23T17:38:37.946Z,17.55
2023-04-23T17:41:23.459Z,17.29
2023-04-23T17:44:09.130Z,17.30
2023-04-23T17:46:55.133Z,16.30
2023-04-23T17:49:40.823Z,16.90
2023-04-23T17:52:28.738Z,16.93
2023-04-23T17:55:14.377Z,16.98
2023-04-23T17:58:06.571Z,16.98
2023-04-23T18:00:52.082Z,16.28
2023-04-23T18:03:37.666Z,16.80
2023-04-23T18:06:23.650Z,16.88
2023-04-23T18:09:09.032Z,16.62
2023-04-23T18:11:57.287Z,16.82
2023-04-23T18:14:42.995Z,16.68
2023-04-23T18:17:28.528Z,15.80
2023-04-23T18:20:14.494Z,15.69
2023-04-23T18:23:00.918Z,16.68
2023-04-23T18:25:47.075Z,15.64
2023-04-23T18:28:37.162Z,15.69
2023-04-23T18:31:23.385Z,16.63
2023-04-23T18:34:10.136Z,16.40
2023-04-23T18:36:55.995Z,15.66
2023-04-23T18:39:41.610Z,15.60
2023-04-23T18:42:32.269Z,16.50
2023-04-23T18:45:18.744Z,16.10
2023-04-23T18:48:34.052Z,16.36
2023-04-23T18:51:30.637Z,16.25
2023-04-23T18:54:17.936Z,16.17
2023-04-23T18:57:04.279Z,16.06
2023-04-23T18:59:49.847Z,14.98
2023-04-23T19:02:36.148Z,15.77
2023-04-23T19:05:21.767Z,15.61
2023-04-23T19:08:07.662Z,14.75
2023-04-23T19:10:52.897Z,15.26
2023-04-23T19:13:38.334Z,15.67
2023-04-23T19:16:23.612Z,15.36
2023-04-23T19:19:09.325Z,14.45
2023-04-23T19:21:54.822Z,15.41
2023-04-23T19:24:40.173Z,15.29
2023-04-23T19:27:25.756Z,14.23
2023-04-23T19:30:11.573Z,15.32
2023-04-23T19:32:57.363Z,15.19
2023-04-23T19:35:43.013Z,14.78
2023-04-23T19:38:28.449Z,14.05
2023-04-23T19:41:14.693Z,15.07
2023-04-23T19:44:00.475Z,14.98
2023-04-23T19:46:46.123Z,13.64
2023-04-23T19:49:31.720Z,14.84
2023-04-23T19:52:21.572Z,13.63
2023-04-23T19:55:07.919Z,14.71
2023-04-23T19:57:56.900Z,13.71
2023-04-23T20:00:43.889Z,14.54
2023-04-23T20:03:29.908Z,13.27
2023-04-23T20:06:15.872Z,14.28
2023-04-23T20:09:07.684Z,13.85
2023-04-23T20:11:53.498Z,14.31
2023-04-23T20:14:39.073Z,14.08
2023-04-23T20:17:26.730Z,14.28
2023-04-23T20:20:12.098Z,14.33
2023-04-23T20:22:57.447Z,14.07
2023-04-23T20:25:43.272Z,13.19
2023-04-23T20:28:29.191Z,13.13
2023-04-23T20:31:15.032Z,13.24
2023-04-23T20:34:01.171Z,13.69
2023-04-23T20:36:51.183Z,13.91
2023-04-23T20:39:37.322Z,14.04
2023-04-23T20:42:23.230Z,12.90
2023-04-23T20:45:09.504Z,13.45
2023-04-23T20:47:57.363Z,12.61
2023-04-23T20:50:43.050Z,13.67
2023-04-23T20:53:29.065Z,12.72
2023-04-23T20:56:15.284Z,13.43
2023-04-23T20:59:00.598Z,13.25
2023-04-23T21:01:46.075Z,13.26
2023-04-23T21:04:31.787Z,13.18
2023-04-23T21:07:19.660Z,13.59
2023-04-23T21:10:05.969Z,11.86
2023-04-23T21:12:51.902Z,13.02
2023-04-23T21:15:38.514Z,13.31
2023-04-23T21:18:24.144Z,13.31
2023-04-23T21:21:09.805Z,13.03
2023-04-23T21:23:56.537Z,13.22
2023-04-23T21:26:42.776Z,13.02
2023-04-23T21:29:28.281Z,13.26
2023-04-23T21:32:14.001Z,13.11
2023-04-23T21:34:59.374Z,13.14
2023-04-23T21:37:44.571Z,13.04
2023-04-23T21:40:30.702Z,12.90
2023-04-23T21:43:16.860Z,11.98
2023-04-23T21:46:02.683Z,11.94
2023-04-23T21:48:49.519Z,11.75
2023-04-23T21:51:37.013Z,12.36
2023-04-23T21:54:22.666Z,11.88
2023-04-23T21:57:08.076Z,12.76
2023-04-23T21:59:53.598Z,11.52
2023-04-23T22:02:46.583Z,11.92
2023-04-23T22:05:32.750Z,11.70
2023-04-23T22:08:18.789Z,11.85
2023-04-23T22:11:05.684Z,11.61
2023-04-23T22:13:51.087Z,11.92
2023-04-23T22:16:36.476Z,12.27
2023-04-23T22:19:22.755Z,10.92
2023-04-23T22:22:08.468Z,12.05
2023-04-23T22:24:53.728Z,12.04
2023-04-23T22:27:40.526Z,11.91
2023-04-23T22:30:26.036Z,11.82
2023-04-23T22:33:11.479Z,11.51
2023-04-23T22:35:56.864Z,11.19
2023-04-23T22:38:43.226Z,11.65
2023-04-23T22:41:29.216Z,11.26
2023-04-23T22:44:14.505Z,10.15
2023-04-23T22:46:59.879Z,10.45
2023-04-23T22:49:45.833Z,11.42
2023-04-23T22:52:31.964Z,10.96
2023-04-23T22:55:17.628Z,11.15
2023-04-23T22:58:03.233Z,10.65
2023-04-23T23:00:48.526Z,10.43
2023-04-23T23:03:33.900Z,10.73
2023-04-23T23:06:19.226Z,11.17
2023-04-23T23:09:05.796Z,10.15
2023-04-23T23:11:51.196Z,11.15
2023-04-23T23:14:37.942Z,10.76
2023-04-23T23:17:23.632Z,10.98
2023-04-23T23:20:09.363Z,10.92
2023-04-23T23:22:54.847Z,9.83
2023-04-23T23:25:40.300Z,10.81
2023-04-23T23:28:26.079Z,10.60
2023-04-23T23:31:11.610Z,10.81
2023-04-23T23:33:56.959Z,10.86
2023-04-23T23:36:44.121Z,10.92
2023-04-23T23:39:29.689Z,11.07
2023-04-23T23:42:15.002Z,9.20
2023-04-23T23:45:00.442Z,11.20
2023-04-23T23:47:46.058Z,9.98
2023-04-23T23:50:32.187Z,11.14
2023-04-23T23:53:17.762Z,9.70
2023-04-23T23:56:03.969Z,10.56
2023-04-23T23:58:49.647Z,10.67
